Tiempo atmosférico en la estación meteorológica de Bardenas Reales, Base Aérea, Navarra (295 m.)



Fecha
DESCASC
Temp. máxima en grados centígrados (hora)
DESCASC
Temp. mínima en grados centígrados (hora)
DESCASC
Temp. media en grados centígrados
DESCASC
Racha de viento máxima en m/sg (hora)
DESCASC
Velocidad máxima media en intervalos de 10 minutos(hora)
DESCASC
Precipitaciones diarias en mm
DESCASC
Precipitaciones de 00:00 a 06:00 en mm
DESCASC
Precipitaciones de 06:00 a 12:00 en mm
DESCASC
Precipitaciones de 12:00 a 18:00 en mm
DESCASC
Precipitaciones de 18:00 a 24:00 en mm
DESCASC
20-05-2018 25.9 (18:10) 12.3 (04:30) 19.1 12.22 (20:30) 8.33 (20:30) 0 0 0 0 0
19-05-2018 26.5 (16:40) 10.6 (06:00) 18.6 13.61 (17:50) 10 (17:50) 0 0 0 0 0
18-05-2018 25.9 (17:20) 10.2 (00:00) 18 14.44 (18:10) 9.17 (18:10) 0 0 0 0 0
17-05-2018 25.4 (17:20) 9.1 (00:00) 17.3 11.39 (18:50) 8.61 (18:50) 0 0 0 0 0
16-05-2018 22.4 (16:30) 9.7 (00:00) 16 15 (02:00) 10.83 (03:20) 0 0 0 0 0
15-05-2018 17.7 (14:50) 9.2 (00:00) 13.5 18.61 (18:30) 14.17 (11:40) 0 0 0 0 0
14-05-2018 16.9 (17:00) 7.5 (00:00) 12.2 18.33 (17:20) 13.06 (18:00) 0.6 0.6 0 0 0
13-05-2018 16.1 (14:20) 4.6 (00:00) 10.4 15.56 (19:30) 10.83 (14:10) 0.2 0 0 0 0.2
12-05-2018 19.4 (13:00) 7.8 (00:00) 13.6 17.5 (20:50) 12.5 (21:40) 0.2 0 0 0 0.2
11-05-2018 25.6 (19:00) 5 (06:30) 15.3 9.72 (22:20) 6.94 (22:00) 0 0 0 0 0
10-05-2018 19 (14:10) 9.4 (00:00) 14.2 17.78 (15:30) 13.06 (15:30) 0 0 0 0 0
09-05-2018 21.8 (15:50) 11.6 (00:00) 16.7 19.17 (21:40) 12.78 (21:40) 0 0 0 0 0
08-05-2018 23.8 (14:10) 13.4 (00:00) 18.6 17.22 (17:40) 12.78 (17:40) 0 0 0 0 0
07-05-2018 27.7 (17:30) 14.5 (00:00) 21.1 9.72 (21:40) 6.39 (21:40) 1 0 0.4 0 0.6
06-05-2018 26.7 (18:40) 9.3 (00:00) 18 -- (--) -- (--) 0 0 0 0 0
05-05-2018 23.3 (17:20) 9.6 (00:00) 16.4 14.17 (00:30) 10 (00:20) 0 0 0 0 0
04-05-2018 17.9 (15:30) 8.7 (00:00) 13.3 19.72 (16:50) 15.28 (17:20) 0 0 0 0 0
03-05-2018 14.2 (17:10) 9.5 (00:00) 11.8 20.83 (20:10) 15.83 (20:00) 0 0 0 0 0
02-05-2018 19.1 (15:40) 2.2 (00:00) 10.7 14.17 (14:20) 8.61 (13:30) 0 0 0 0 0
01-05-2018 15.3 (16:00) 5.8 (06:10) 10.6 14.17 (16:30) 10.56 (11:00) 0 0 0 0 0
30-04-2018 15.6 (14:20) 3.7 (00:00) 9.7 12.78 (15:10) 8.61 (17:10) 0.8 0 0 0.8 0
29-04-2018 14.7 (14:40) 7.1 (00:00) 10.9 11.39 (11:50) 8.33 (11:50) 3.4 0 0 2.4 1
28-04-2018 21 (15:40) 8.8 (00:00) 14.9 12.5 (16:50) 7.78 (14:20) 2.2 0 0 2.2 0
27-04-2018 23.8 (15:20) 9.5 (00:00) 16.6 11.67 (17:40) 8.89 (17:40) 0.2 0 0.2 0 0
26-04-2018 21.4 (17:40) 11.2 (00:00) 16.3 15 (09:30) 10.83 (11:00) 0 0 0 0 0
25-04-2018 24.9 (15:30) 10.8 (00:00) 17.8 18.06 (19:00) 13.33 (18:50) 0 0 0 0 0
24-04-2018 25.9 (17:50) 9.4 (00:00) 17.6 8.61 (16:50) 5.56 (19:20) 0 0 0 0 0
23-04-2018 22 (16:00) 11.3 (00:00) 16.7 8.61 (17:00) 6.39 (16:40) 0 0 0 0 0
22-04-2018 23.7 (18:00) 11.6 (00:00) 17.7 7.78 (04:00) 6.67 (03:50) 0 0 0 0 0

Gráficas

Temp. máximas Temp. mínimas Temp. medias Precipitaciones Rachas de viento máximas Velocidades máximas media en intervalos de 10 minutos

Datos horarios

Fecha y hora oficial Temperatura (ºC) Velocidad del viento (km/h) Dirección del viento Racha (km/h) Dirección de racha Precipitación (mm) Presión (hPa) Tendencia (hPa) Humedad (%)
2018-05-21 23:00:00 16.6 8 Nordeste 18 Sudeste 0 977.6 2 75
2018-05-21 22:00:00 18.4 12 Este 22 Nordeste 0 976.5 1.3 58
2018-05-21 21:00:00 19.4 19 Nordeste 40 Norte 0 976 1 56
2018-05-21 20:00:00 20.5 32 Norte 47 Norte 0 975.6 0.7 53
2018-05-21 19:00:00 22.7 4 Noroeste 13 Sudeste 0 975.2 0.3 42
2018-05-21 18:00:00 21.4 9 Sur 23 Oeste 0 975 0.2 51
2018-05-21 17:00:00 20.2 17 Sudoeste 29 Sudoeste 0 974.9 -0.5 56
2018-05-21 16:00:00 21 22 Oeste 45 Oeste 0 974.9 -1 56
2018-05-21 15:00:00 23.8 10 Sudeste 28 Este 0 974.8 -1.7 40
2018-05-21 14:00:00 23.1 12 Este 26 Este 0 975.4 -1.4 43
2018-05-21 13:00:00 23.4 13 Este 27 Sudeste 0 975.9 -0.8 43
2018-05-21 12:00:00 21.9 15 Este 31 Este 0 976.5 -0.4 51
2018-05-21 11:00:00 20 19 Este 27 Este 0 976.8 -0.3 60
2018-05-21 10:00:00 19.1 17 Este 23 Este 0 976.7 -0.2 64
2018-05-21 09:00:00 16.7 11 Este 17 Este 0 976.9 0 76
2018-05-21 08:00:00 15.1 9 Este 12 Este 0 977.1 0.2 82
2018-05-21 07:00:00 14.9 8 Este 20 Este 0 976.9 -0.3 84
2018-05-21 06:00:00 15.2 13 Sudeste 19 Este 0.2 976.9 -0.6 82
2018-05-21 05:00:00 15.1 10 Sudeste 14 Este 0 976.9 -1 81
2018-05-21 04:00:00 15 6 Este 17 Este 0 977.2 -0.9 79
2018-05-21 03:00:00 15.2 10 Este 15 Este 0 977.5 -0.7 80
2018-05-21 02:00:00 15.4 13 Este 17 Este 0 977.9 -0.3 79
2018-05-21 01:00:00 15.9 13 Este 24 Este 0 978.1 0.3 77
2018-05-21 00:00:00 16.4 19 Este 23 Este 0 978.2 0.8 71
2018-05-20 23:00:00 17.3 16 Este 24 Este 0 978.2 1.7 66
2018-05-20 22:00:00 19 19 Este 28 Este 0 977.8 1.7 64
2018-05-20 21:00:00 19.5 10 Este 44 Sudeste 0 977.4 1.2 61
2018-05-20 20:00:00 21.9 27 Sudeste 39 Sur 0 976.5 -0.2 46
2018-05-20 19:00:00 23.8 14 Este 22 Este 0 976.1 -1.5 36
2018-05-20 18:00:00 25.5 11 Sur 22 Sur 0 976.2 -2.3 33
2018-05-20 17:00:00 24.4 9 Sudeste 19 Este 0 976.7 -2.7 34
2018-05-20 16:00:00 25.2 5 Sudeste 20 Sudeste 0 977.6 -2.7 33
2018-05-20 15:00:00 24.1 9 Sudeste 20 Sur 0 978.5 -2.4 36
2018-05-20 14:00:00 23.1 7 Sudoeste 17 Sudoeste 0 979.4 -1.9 39
2018-05-20 13:00:00 21.8 7 Sudeste 16 Noroeste 0 980.3 -1.3 44
2018-05-20 12:00:00 20.3 9 Oeste 22 Sudoeste 0 980.9 -0.9 48
2018-05-20 11:00:00 18.6 12 Oeste 18 Oeste 0 981.3 -0.4 51
2018-05-20 10:00:00 17.2 11 Noroeste 18 Noroeste 0 981.6 0.4 54
2018-05-20 09:00:00 15.3 10 Noroeste 17 Noroeste 0 981.8 0.7 60
2018-05-20 08:00:00 13.6 6 Noroeste 11 Noroeste 0 981.7 0.5 67
2018-05-20 07:00:00 13 7 Noroeste 10 Oeste 0 981.2 0 70
2018-05-20 06:00:00 13.6 7 Oeste 12 Oeste 0 981.1 -0.6 68
2018-05-20 05:00:00 12.6 0 Calma 6 Norte 0 981.2 -0.7 73
2018-05-20 04:00:00 12.8 3 Oeste 10 Noroeste 0 981.2 -0.7 73
2018-05-20 03:00:00 13.5 9 Noroeste 17 Noroeste 0 981.7 -0.2 73
2018-05-20 02:00:00 14.2 14 Noroeste 23 Noroeste 0 981.9 0.6 69
2018-05-20 01:00:00 15.3 14 Noroeste 23 Noroeste 0 981.9 1.5 65
2018-05-20 00:00:00 16.5 11 Noroeste 21 Noroeste 0 981.9 1.9 60
2018-05-19 23:00:00 17.8 14 Noroeste 23 Noroeste 0 981.3 1.6 54
2018-05-19 22:00:00 19.4 16 Noroeste 27 Noroeste 0 980.4 1 44
2018-05-19 21:00:00 21.5 19 Noroeste 29 Noroeste 0 980 0.7 42
2018-05-19 20:00:00 22.4 22 Norte 35 Noroeste 0 979.7 0.2 42
2018-05-19 19:00:00 22.6 26 Norte 43 Noroeste 0 979.4 -0.4 40
2018-05-19 18:00:00 24 35 Noroeste 49 Noroeste 0 979.3 -1.3 39
2018-05-19 17:00:00 25.8 24 Norte 36 Noroeste 0 979.5 -1.9 32
2018-05-19 16:00:00 25.2 19 Noroeste 34 Noroeste 0 979.8 -2.3 36
2018-05-19 15:00:00 25.5 8 Sudoeste 21 Sudoeste 0 980.6 -1.9 35
2018-05-19 14:00:00 24.1 10 Oeste 19 Noroeste 0 981.4 -1.5 39
2018-05-19 13:00:00 22.7 6 Sudoeste 21 Norte 0 982.1 -1.1 46
2018-05-19 12:00:00 21.1 12 Noroeste 19 Oeste 0 982.5 -0.7 53
2018-05-19 11:00:00 19.4 12 Noroeste 23 Oeste 0 982.9 -0.1 59
2018-05-19 10:00:00 17.2 10 Noroeste 16 Noroeste 0 983.2 0.6 68
2018-05-19 09:00:00 14.8 6 Noroeste 11 Noroeste 0 983.2 0.8 77
2018-05-19 08:00:00 12.6 0 Calma 8 Noroeste 0 983 0.8 84
2018-05-19 07:00:00 11 4 Norte 9 Noroeste 0 982.6 0.4 89
2018-05-19 06:00:00 10.8 3 Sudoeste 6 Sudoeste 0 982.4 0 88
2018-05-19 05:00:00 11.7 4 Noroeste 10 Noroeste 0 982.2 -0.5 84
2018-05-19 04:00:00 12.2 5 Oeste 7 Noroeste 0 982.2 -0.3 86
2018-05-19 03:00:00 12.9 0 Calma 9 Noroeste 0 982.4 0 82
2018-05-19 02:00:00 13.6 5 Oeste 8 Noroeste 0 982.7 0.3 81
2018-05-19 01:00:00 14.6 5 Noroeste 9 Noroeste 0 982.5 0.7 77
2018-05-19 00:00:00 15.2 6 Noroeste 9 Noroeste 0 982.4 1.1 76
2018-05-18 23:00:00 16 5 Norte 10 Oeste 0 982.4 1.9 73
2018-05-18 22:00:00 16.9 7 Oeste 9 Oeste 0 981.8 1.2 71
2018-05-18 21:00:00 17.3 9 Norte 17 Norte 0 981.3 0.9 72
2018-05-18 20:00:00 17.9 10 Este 30 Este 0 980.5 0.7 64
2018-05-18 19:00:00 19.7 12 Nordeste 52 Nordeste 0 980.6 0.2 54
2018-05-18 18:00:00 22.5 19 Norte 39 Nordeste 0 980.4 -0.5 47
2018-05-18 17:00:00 25.3 8 Oeste 21 Sudoeste 0 979.8 -1.9 34
2018-05-18 16:00:00 24.5 10 Oeste 24 Oeste 0 980.4 -2.1 38
2018-05-18 15:00:00 24 12 Noroeste 23 Noroeste 0 980.9 -1.8 42
2018-05-18 14:00:00 22.8 11 Oeste 21 Noroeste 0 981.7 -1.2 45
2018-05-18 13:00:00 21.4 9 Noroeste 21 Noroeste 0 982.5 -0.5 49
2018-05-18 12:00:00 20 7 Norte 21 Oeste 0 982.7 -0.2 57
2018-05-18 11:00:00 18.2 8 Oeste 15 Noroeste 0 982.9 0.3 62
2018-05-18 10:00:00 16 5 Noroeste 11 Noroeste 0 983 0.9 69
2018-05-18 09:00:00 13.3 7 Norte 10 Noroeste 0 982.9 1.3 80
2018-05-18 08:00:00 11.1 3 Noroeste 5 Noroeste 0 982.6 0.7 85
2018-05-18 07:00:00 10.4 2 Sur 7 Nordeste 0 982.1 0.3 86
2018-05-18 06:00:00 10.9 0 Calma 6 Oeste 0 981.6 -0.3 85
2018-05-18 05:00:00 11.5 0 Calma 7 Norte 0 981.9 -0.2 84
2018-05-18 04:00:00 12 5 Norte 12 Noroeste 0 981.8 -0.1 84
2018-05-18 03:00:00 12.3 5 Noroeste 15 Oeste 0 981.9 0.5 80
2018-05-18 02:00:00 13 9 Sudoeste 19 Oeste 0 982.1 1.2 79
2018-05-18 01:00:00 13.8 10 Oeste 24 Oeste 0 981.9 2.1 77
2018-05-18 00:00:00 14.4 18 Oeste 24 Oeste 0 981.4 2 75
2018-05-17 23:00:00 15.6 16 Oeste 24 Oeste 0 980.9 2.4 71
2018-05-17 22:00:00 17.1 15 Noroeste 22 Oeste 0 979.8 1.3 65
2018-05-17 21:00:00 19 13 Noroeste 33 Noroeste 0 979.4 0.8 57
2018-05-17 20:00:00 20.7 22 Noroeste 41 Noroeste 0 978.5 -0.1 51
2018-05-17 19:00:00 21.6 29 Noroeste 41 Noroeste 0 978.5 -0.7 48
2018-05-17 18:00:00 23.6 26 Noroeste 36 Noroeste 0 978.6 -1.3 41
2018-05-17 17:00:00 25.1 15 Noroeste 29 Oeste 0 978.6 -1.9 32
2018-05-17 16:00:00 24.6 14 Noroeste 27 Noroeste 0 979.2 -2.1 36
2018-05-17 15:00:00 23.6 9 Oeste 15 Noroeste 0 979.9 -1.9 38
2018-05-17 14:00:00 21.9 9 Oeste 17 Noroeste 0 980.5 -1.4 42
2018-05-17 13:00:00 20.5 8 Oeste 17 Oeste 0 981.3 -0.8 47
2018-05-17 12:00:00 18.5 9 Oeste 15 Norte 0 981.8 -0.5 53
2018-05-17 11:00:00 16.6 8 Noroeste 19 Noroeste 0 981.9 0 59
2018-05-17 10:00:00 14.8 15 Noroeste 22 Noroeste 0 982.1 0.4 66
2018-05-17 09:00:00 12.9 8 Noroeste 15 Noroeste 0 982.3 0.8 74
2018-05-17 08:00:00 11.1 4 Noroeste 10 Noroeste 0 981.9 0.4 81
2018-05-17 07:00:00 9.2 4 Nordeste 14 Oeste 0 981.7 0.1 86
2018-05-17 06:00:00 10 10 Noroeste 17 Oeste 0 981.5 -0.3 84
2018-05-17 05:00:00 9.7 2 Sur 13 Noroeste 0 981.5 -0.7 82
2018-05-17 04:00:00 10.3 6 Noroeste 18 Oeste 0 981.6 -0.7 82
2018-05-17 03:00:00 10.9 9 Noroeste 16 Oeste 0 981.8 -0.7 81
2018-05-17 02:00:00 11.3 10 Oeste 28 Oeste 0 982.2 0.1 80
2018-05-17 01:00:00 12.3 19 Oeste 30 Oeste 0 982.3 1.2 76
2018-05-17 00:00:00 12.7 18 Oeste 27 Oeste 0 982.5 2 77
2018-05-16 23:00:00 13.1 13 Noroeste 24 Noroeste 0 982.1 1.8 75
2018-05-16 22:00:00 14.3 17 Noroeste 37 Noroeste 0 981.1 0.9 71
2018-05-16 21:00:00 16.5 27 Noroeste 48 Noroeste 0 980.5 0.1 62
2018-05-16 20:00:00 18.8 33 Noroeste 46 Oeste 0 980.3 -0.4 53
2018-05-16 19:00:00 20.2 30 Noroeste 42 Noroeste 0 980.2 -1.3 48
2018-05-16 18:00:00 21.6 30 Noroeste 42 Oeste 0 980.4 -1.7 44
2018-05-16 17:00:00 22 28 Noroeste 40 Noroeste 0 980.7 -2.1 42
2018-05-16 16:00:00 21.8 26 Noroeste 37 Noroeste 0 981.5 -1.8 42
2018-05-16 15:00:00 21.3 25 Noroeste 37 Oeste 0 982.1 -1.7 44
2018-05-16 14:00:00 19.8 23 Oeste 34 Noroeste 0 982.8 -1 47
2018-05-16 13:00:00 18.7 23 Oeste 37 Oeste 0 983.3 -0.5 49
2018-05-16 12:00:00 17.3 27 Noroeste 42 Noroeste 0 983.8 0 54
2018-05-16 11:00:00 15.7 30 Noroeste 45 Noroeste 0 983.8 0.1 58
2018-05-16 10:00:00 13.9 31 Noroeste 48 Noroeste 0 983.8 0.1 62
2018-05-16 09:00:00 12.1 32 Oeste 45 Oeste 0 983.8 0.3 67
2018-05-16 08:00:00 10.5 28 Oeste 40 Noroeste 0 983.7 -0.1 71
2018-05-16 07:00:00 9.8 27 Oeste 38 Oeste 0 983.7 -0.3 71
2018-05-16 06:00:00 9.8 29 Oeste 42 Oeste 0 983.5 -0.9 69
2018-05-16 05:00:00 9.8 31 Oeste 45 Oeste 0 983.8 -0.7 69
2018-05-16 04:00:00 10.1 29 Oeste 53 Noroeste 0 984 -0.6 67
2018-05-16 03:00:00 10.5 35 Noroeste 51 Noroeste 0 984.4 -0.2 68
2018-05-16 02:00:00 10.8 39 Noroeste 54 Noroeste 0 984.5 0.2 66
2018-05-16 01:00:00 11.2 35 Noroeste 51 Noroeste 0 984.6 1.2 65
2018-05-16 00:00:00 11.7 37 Noroeste 52 Oeste 0 984.6 1.1 61
2018-05-15 23:00:00 12.1 32 Noroeste 54 Oeste 0 984.3 1.1 65
2018-05-15 22:00:00 12.7 38 Noroeste 57 Noroeste 0 983.4 0.5 64
2018-05-15 21:00:00 13.6 35 Noroeste 57 Noroeste 0 983.5 -0.1 62
2018-05-15 20:00:00 14.7 37 Noroeste 55 Noroeste 0 983.2 -0.7 59
2018-05-15 19:00:00 16 42 Noroeste 67 Noroeste 0 982.9 -1 53
2018-05-15 18:00:00 16 42 Noroeste 64 Noroeste 0 983.6 -0.7 55
2018-05-15 17:00:00 16.3 40 Noroeste 62 Noroeste 0 983.9 -0.8 54
2018-05-15 16:00:00 16.9 40 Noroeste 57 Noroeste 0 983.9 -1.6 53
2018-05-15 15:00:00 17.6 38 Noroeste 55 Noroeste 0 984.3 -1.3 49
2018-05-15 14:00:00 16.9 38 Noroeste 57 Noroeste 0 984.7 -1 51
2018-05-15 13:00:00 15.3 40 Noroeste 62 Noroeste 0 985.5 -0.3 55
2018-05-15 12:00:00 14.3 46 Noroeste 65 Noroeste 0 985.6 -0.2 57
2018-05-15 11:00:00 12.5 41 Noroeste 55 Noroeste 0 985.7 -0.2 61
2018-05-15 10:00:00 12.4 37 Noroeste 53 Noroeste 0 985.8 0.4 58
2018-05-15 09:00:00 11.4 34 Noroeste 49 Noroeste 0 985.8 0.4 61
2018-05-15 08:00:00 10.3 33 Oeste 51 Noroeste 0 985.9 0 66
2018-05-15 07:00:00 9.6 29 Noroeste 48 Noroeste 0 985.4 -0.3 69
2018-05-15 06:00:00 9.8 27 Oeste 44 Oeste 0 985.4 -0.9 69
2018-05-15 05:00:00 9.3 16 Oeste 35 Noroeste 0 985.9 -0.8 71
2018-05-15 04:00:00 9.4 26 Noroeste 38 Noroeste 0 985.7 -1.1 71
2018-05-15 03:00:00 9.4 22 Noroeste 38 Noroeste 0 986.3 -0.4 71
2018-05-15 02:00:00 9.5 22 Noroeste 48 Noroeste 0 986.7 -0.1 70
2018-05-15 01:00:00 10.1 26 Noroeste 45 Noroeste 0 986.8 0.3 65
2018-05-15 00:00:00 10.2 31 Noroeste 45 Noroeste 0 986.7 1 65
2018-05-14 23:00:00 10.9 34 Noroeste 48 Noroeste 0 986.8 1.5 62
2018-05-14 22:00:00 11.3 35 Noroeste 49 Noroeste 0 986.5 1.7 60
2018-05-14 21:00:00 12.1 35 Noroeste 51 Noroeste 0 985.7 1.9 59
2018-05-14 20:00:00 12.5 38 Noroeste 63 Noroeste 0 985.3 2 61
2018-05-14 19:00:00 13.4 42 Noroeste 64 Noroeste 0 984.8 1 56
2018-05-14 18:00:00 16.2 47 Noroeste 66 Noroeste 0 983.8 -0.3 42
2018-05-14 17:00:00 16.5 41 Noroeste 60 Noroeste 0 983.3 -1 38
2018-05-14 16:00:00 16 40 Noroeste 58 Noroeste 0 983.8 -0.6 41
2018-05-14 15:00:00 15.9 37 Noroeste 53 Noroeste 0 984.1 -0.6 35
2018-05-14 14:00:00 16.5 35 Noroeste 54 Noroeste 0 984.3 -0.1 35
2018-05-14 13:00:00 14.7 32 Noroeste 50 Noroeste 0 984.4 -0.6 46
2018-05-14 12:00:00 13.8 35 Noroeste 46 Noroeste 0 984.7 -0.3 55
2018-05-14 11:00:00 12.6 28 Noroeste 40 Noroeste 0 984.4 -0.2 62
2018-05-14 10:00:00 11.1 23 Noroeste 35 Noroeste 0 985 0.5 72
2018-05-14 09:00:00 10.1 19 Noroeste 28 Noroeste 0 985 0.5 77
2018-05-14 08:00:00 9.1 16 Oeste 26 Oeste 0 984.6 -0.3 86
2018-05-14 07:00:00 7.9 21 Oeste 26 Oeste 0 984.5 -0.5 90
2018-05-14 06:00:00 8 13 Oeste 17 Oeste 0.2 984.5 -0.7 91
2018-05-14 05:00:00 8.5 10 Noroeste 14 Oeste 0 984.9 -0.9 90
2018-05-14 04:00:00 8.7 13 Oeste 18 Oeste 0 985 -0.9 89
2018-05-14 03:00:00 8.6 10 Oeste 15 Noroeste 0 985.2 -0.8 90
2018-05-14 02:00:00 8.9 8 Noroeste 11 Oeste 0.2 985.8 -0.2 88
2018-05-14 01:00:00 9.1 6 Noroeste 15 Noroeste 0.2 985.9 0.8 87
2018-05-11 20:00:00 21.9 19 Sur 28 Sudoeste 0 978.7 -0.9 57
2018-05-11 19:00:00 25.3 6 Oeste 15 Norte 0 978.8 -1.2 28
2018-05-11 18:00:00 25.3 5 Noroeste 16 Norte 0 979.1 -1.3 31
2018-05-11 17:00:00 24.6 9 Norte 16 Norte 0 979.6 -1.6 36
2018-05-11 16:00:00 25.4 5 Sur 17 Este 0 980 -1.8 35
2018-05-11 15:00:00 23.8 9 Este 26 Sudeste 0 980.4 -2 38
2018-05-11 14:00:00 22.2 11 Este 33 Sur 0 981.2 -1.6 41
2018-05-11 13:00:00 20.5 10 Sudeste 18 Este 0 981.8 -0.9 44
2018-05-11 12:00:00 18.4 6 Sudeste 15 Este 0 982.4 -0.5 50
2018-05-11 11:00:00 16.2 5 Nordeste 11 Sudeste 0 982.8 -0.4 55
2018-05-11 10:00:00 12.7 7 Este 13 Este 0 982.7 0.1 68
2018-05-11 09:00:00 10 3 Este 7 Este 0 982.9 0.3 77
2018-05-11 08:00:00 7 4 Noroeste 6 Noroeste 0 983.2 0.1 88
2018-05-11 07:00:00 5.1 3 Oeste 9 Sudeste 0 982.6 -0.3 93
2018-05-11 06:00:00 5.4 5 Sudeste 8 Noroeste 0 982.6 -0.7 91
2018-05-11 05:00:00 5.9 7 Oeste 8 Noroeste 0 983.1 -0.4 90
2018-05-11 04:00:00 6.5 0 Calma 10 Norte 0 982.9 -1 85
2018-05-11 03:00:00 7.1 3 Sur 10 Este 0 983.3 -0.3 86
2018-05-11 02:00:00 7.5 6 Este 9 Este 0 983.5 0 86
2018-05-11 01:00:00 8.5 5 Norte 10 Oeste 0 983.9 0.7 82
2018-05-11 00:00:00 9.4 7 Oeste 15 Oeste 0 983.6 0.9 79
2018-05-10 23:00:00 10.5 13 Oeste 24 Noroeste 0 983.5 1 76
2018-05-10 22:00:00 11.7 21 Noroeste 30 Noroeste 0 983.2 0.8 70
2018-05-10 21:00:00 13.5 22 Noroeste 46 Noroeste 0 982.7 0.5 62
2018-05-10 20:00:00 15 32 Noroeste 51 Noroeste 0 982.5 0.3 55
2018-05-10 19:00:00 16.1 37 Noroeste 60 Noroeste 0 982.4 0.1 53
2018-05-10 18:00:00 16.8 43 Noroeste 63 Noroeste 0 982.2 -0.2 53
2018-05-10 17:00:00 17.7 44 Noroeste 57 Noroeste 0 982.2 -0.2 49
2018-05-10 16:00:00 18 42 Noroeste 64 Noroeste 0 982.3 0.2 50
2018-05-10 15:00:00 18.4 41 Noroeste 59 Noroeste 0 982.4 0.1 52
2018-05-10 14:00:00 18.7 39 Noroeste 63 Noroeste 0 982.4 0 47
2018-05-10 13:00:00 18.3 42 Noroeste 56 Noroeste 0 982.1 -0.4 48
2018-05-10 12:00:00 16.8 36 Noroeste 55 Noroeste 0 982.3 -0.3 56
2018-05-10 11:00:00 15.3 39 Noroeste 59 Noroeste 0 982.4 0.4 59
2018-05-10 10:00:00 14.3 36 Noroeste 52 Noroeste 0 982.5 1.2 59
2018-05-10 09:00:00 11.8 27 Noroeste 40 Noroeste 0 982.6 1.8 66
2018-05-10 08:00:00 11.7 25 Noroeste 38 Noroeste 0 982 1.6 66
2018-05-10 07:00:00 12.2 28 Noroeste 41 Noroeste 0 981.3 1.3 68
2018-05-10 06:00:00 12.6 25 Noroeste 38 Noroeste 0 980.8 1 70
2018-05-10 05:00:00 12.6 29 Noroeste 42 Noroeste 0 980.4 1.3 74
2018-05-10 04:00:00 12.6 29 Noroeste 42 Noroeste 0 980 1.1 74
2018-05-10 03:00:00 12.9 23 Noroeste 41 Noroeste 0 979.8 1.6 74
2018-05-10 02:00:00 13.3 27 Noroeste 50 Noroeste 0 979.1 1 71
2018-05-10 01:00:00 13.9 34 Noroeste 47 Noroeste 0 978.9 1.9 68
2018-05-10 00:00:00 14.2 30 Noroeste 51 Noroeste 0 978.2 1.8 67
2018-05-09 23:00:00 15.1 32 Noroeste 59 Noroeste 0 978.1 2.5 62
2018-05-09 22:00:00 15.4 42 Noroeste 69 Noroeste 0 977 2.1 65
2018-05-09 21:00:00 16.3 41 Noroeste 62 Noroeste 0 976.4 1.6 64
2018-05-09 20:00:00 18 38 Noroeste 53 Noroeste 0 975.6 0.7 58
2018-05-09 19:00:00 19.9 39 Noroeste 57 Noroeste 0 974.9 -0.1 47
2018-05-09 18:00:00 20.9 38 Noroeste 54 Noroeste 0 974.8 -0.7 45
2018-05-09 17:00:00 21.5 32 Noroeste 52 Noroeste 0 974.9 -1.1 45
2018-05-09 16:00:00 21.5 32 Noroeste 51 Noroeste 0 975 -1.3 46
2018-05-09 15:00:00 21 37 Noroeste 51 Noroeste 0 975.5 -1.1 47
2018-05-09 14:00:00 20.2 31 Noroeste 52 Noroeste 0 976 -1.1 48
2018-05-09 13:00:00 19.8 34 Noroeste 55 Noroeste 0 976.3 -1.1 49
2018-05-09 12:00:00 18.8 37 Noroeste 53 Noroeste 0 976.6 -1.1 55
2018-05-09 11:00:00 17 35 Noroeste 54 Noroeste 0 977.1 -0.4 61
2018-05-09 10:00:00 15.6 32 Oeste 46 Oeste 0 977.4 -0.5 62
2018-05-09 09:00:00 13.5 27 Oeste 43 Oeste 0 977.7 0.1 67
2018-05-09 08:00:00 12.8 28 Noroeste 38 Oeste 0 977.5 -0.5 68
2018-05-09 07:00:00 11.7 24 Noroeste 53 Noroeste 0 977.9 0 71
2018-05-09 06:00:00 11.9 40 Noroeste 58 Noroeste 0 977.6 -0.6 74
2018-05-09 05:00:00 11.9 37 Noroeste 50 Noroeste 0 978 -0.6 78
2018-05-09 04:00:00 12.1 30 Noroeste 45 Noroeste 0 977.9 -1.2 81
2018-05-09 03:00:00 12.8 32 Noroeste 42 Noroeste 0 978.2 -0.8 80
2018-05-09 02:00:00 13.4 28 Noroeste 42 Noroeste 0 978.6 -0.4 79
2018-05-09 01:00:00 13.5 29 Noroeste 39 Oeste 0 979.1 0.3 80
2018-05-09 00:00:00 13.7 24 Oeste 35 Noroeste 0 979 0.9 80
2018-05-08 23:00:00 14.2 26 Oeste 44 Noroeste 0 979 1.2 79
2018-05-08 22:00:00 15.3 32 Noroeste 54 Noroeste 0 978.8 1.4 73
2018-05-08 21:00:00 15.9 39 Noroeste 57 Noroeste 0 978.1 1.1 70
2018-05-08 20:00:00 17.6 37 Noroeste 61 Noroeste 0 977.8 1.3 67
2018-05-08 19:00:00 19.2 44 Noroeste 61 Noroeste 0 977.4 0.5 61
2018-05-08 18:00:00 20.8 40 Noroeste 62 Noroeste 0 977 -0.3 53
2018-05-08 17:00:00 21.8 46 Noroeste 60 Noroeste 0 976.5 -0.7 52
2018-05-08 16:00:00 22.2 40 Noroeste 57 Noroeste 0 976.9 -0.9 51
2018-05-08 15:00:00 22.8 42 Noroeste 57 Noroeste 0 977.3 -0.7 50
2018-05-08 14:00:00 23.7 35 Noroeste 49 Noroeste 0 977.2 -1.1 48
2018-05-08 13:00:00 23.1 28 Noroeste 40 Noroeste 0 977.8 -0.3 48
2018-05-08 12:00:00 22 31 Noroeste 41 Noroeste 0 978 0.3 49
2018-05-08 11:00:00 20.8 25 Noroeste 42 Noroeste 0 978.3 0.6 57
2018-05-08 10:00:00 18.9 30 Noroeste 39 Noroeste 0 978.1 0.7 68
2018-05-08 09:00:00 17 26 Noroeste 37 Noroeste 0 977.7 0.2 76
2018-05-08 08:00:00 14.6 4 Noroeste 23 Noroeste 0 977.7 -0.3 86
2018-05-08 07:00:00 13.9 15 Noroeste 19 Noroeste 0 977.4 -0.6 89
2018-05-08 06:00:00 13.6 9 Oeste 14 Oeste 0 977.5 -1.1 91
2018-05-08 05:00:00 13.6 5 Oeste 10 Sudoeste 0 978 -1.4 88
2018-05-08 04:00:00 13.8 5 Sudoeste 10 Oeste 0 978 -1.5 86
2018-05-08 03:00:00 14.8 4 Norte 9 Nordeste 0 978.6 -0.4 80
2018-05-08 02:00:00 15.6 5 Norte 12 Norte 0 979.4 0.3 79
2018-05-08 01:00:00 16.7 11 Norte 13 Norte 0 979.5 0.7 75
2018-05-08 00:00:00 17.8 5 Norte 21 Norte 0 979 0.4 74
2018-05-07 23:00:00 19.3 9 Norte 26 Nordeste 0 979.1 1.3 67
2018-05-07 22:00:00 20.1 14 Nordeste 35 Nordeste 0.6 978.8 1.3 64
2018-05-07 21:00:00 21.6 12 Nordeste 23 Este 0 978.6 1 60
2018-05-07 20:00:00 22.6 11 Este 18 Este 0 977.8 -0.1 58
2018-05-07 19:00:00 24.2 10 Este 15 Este 0 977.5 -1.3 48
2018-05-07 18:00:00 26 4 Nordeste 12 Sur 0 977.6 -2.1 34
2018-05-07 17:00:00 26.7 9 Sudeste 17 Sur 0 977.9 -2.8 33
2018-05-07 16:00:00 26.2 6 Sudoeste 19 Oeste 0 978.8 -2.5 36
2018-05-07 15:00:00 25.3 8 Oeste 17 Oeste 0 979.7 -2 40
2018-05-07 14:00:00 24.3 4 Sur 14 Sur 0 980.7 -1.2 45
2018-05-07 13:00:00 22 7 Sur 14 Sur 0 981.3 -0.6 51
2018-05-07 12:00:00 20.7 7 Sudoeste 13 Sur 0 981.7 -0.1 56
2018-05-07 11:00:00 19.8 2 Oeste 6 Sur 0.4 981.9 0.6 64
2018-05-07 10:00:00 16.9 3 Sudoeste 9 Sudoeste 0 981.9 0.7 76
2018-05-07 09:00:00 15.7 4 Sudoeste 6 Sudoeste 0 981.8 0.8 78
2018-05-07 08:00:00 15.3 4 Noroeste 14 Nordeste 0 981.3 0.2 79
2018-05-07 07:00:00 15.1 9 Nordeste 13 Nordeste 0 981.2 0.2 81
2018-05-07 06:00:00 15.1 9 Este 15 Este 0 981 -0.2 82
2018-05-07 05:00:00 15.2 4 Este 9 Noroeste 0 981.1 -0.3 79
2018-05-07 04:00:00 16.1 4 Noroeste 14 Este 0 981 -0.5 76
2018-05-07 03:00:00 16.8 10 Este 20 Este 0 981.2 -0.2 78
2018-05-07 02:00:00 17.5 13 Este 21 Este 0 981.4 0 74
2018-05-07 01:00:00 18.5 13 Este 17 Este 0 981.5 0.7 70
2018-05-07 00:00:00 19.3 13 Este 20 Este 0 981.4 1.2 65
2018-05-06 23:00:00 19.6 10 Sudeste 24 Este 0 981.4 1.8 61
2018-05-06 22:00:00 20.3 8 Este 12 Este 0 980.8 1.2 56
2018-05-06 21:00:00 23.6 6 Sudeste 13 Este 0 980.2 0.4 37
2018-05-06 20:00:00 25.2 4 Este 10 Sur 0 979.6 -0.4 33
2018-05-06 19:00:00 26.1 7 Sur 13 Sur 0 979.6 -1.3 31
2018-05-06 18:00:00 26 7 Noroeste 17 Noroeste 0 979.8 -1.7 32
2018-05-06 17:00:00 26.2 6 Sudoeste 18 Sudeste 0 980 -2.3 31
2018-05-06 16:00:00 25.6 5 Oeste 17 Sudoeste 0 980.9 -2 31
2018-05-06 15:00:00 24.5 8 Oeste 15 Oeste 0 981.5 -2.1 34
2018-05-06 14:00:00 23.6 4 Sur 15 Sudoeste 0 982.3 -1.3 44
2018-05-06 13:00:00 21.7 5 Sudoeste 14 Oeste 0 982.9 -1 51
2018-05-06 12:00:00 19.7 4 Sudoeste 14 Oeste 0 983.6 -0.4 57
2018-05-06 11:00:00 17.3 8 Noroeste 16 Oeste 0 983.6 -0.3 59
2018-05-06 10:00:00 14.8 8 Noroeste 14 Noroeste 0 983.9 0.4 66
2018-05-06 09:00:00 13 0 Calma 4 Sudoeste 0 984 0.7 73
2018-05-06 08:00:00 10.6 2 Sudeste 5 Sudoeste 0 983.9 0.5 82
2018-05-06 07:00:00 9.4 0 Calma 7 Noroeste 0 983.5 0.2 85
2018-05-06 06:00:00 10.1 4 Noroeste 10 Noroeste 0 983.3 -0.2 84
2018-05-06 05:00:00 10.6 5 Oeste 10 Noroeste 0 983.4 -0.3 83
2018-05-06 04:00:00 10.7 4 Noroeste -- -- 0 983.3 -0.4 83
2018-05-06 03:00:00 11.4 7 Noroeste 12 Oeste 0 983.5 0.1 82
2018-05-06 02:00:00 12.9 9 Oeste 12 Sudoeste 0 983.7 0.6 75
2018-05-06 01:00:00 14.2 -- -- -- -- 0 983.7 1.3 70
2018-05-06 00:00:00 15.6 7 Oeste 13 Oeste 0 983.4 1.7 68
2018-05-05 23:00:00 16.5 8 Noroeste 16 Noroeste 0 983.1 2.2 64
2018-05-05 22:00:00 18 9 Oeste 23 Noroeste 0 982.4 2 56
2018-05-05 21:00:00 19.1 18 Noroeste 33 Noroeste 0 981.7 1.7 52
2018-05-05 20:00:00 21 27 Noroeste 41 Noroeste 0 980.9 1 45
2018-05-05 19:00:00 22 28 Oeste 39 Oeste 0 980.4 0.2 41
2018-05-05 18:00:00 22.8 28 Oeste 41 Oeste 0 980 -0.6 42
2018-05-05 17:00:00 22.8 28 Oeste 40 Oeste 0 979.9 -1.3 42
2018-05-05 16:00:00 22.4 25 Oeste 38 Oeste 0 980.2 -1.6 43
2018-05-05 15:00:00 21.2 24 Oeste 40 Oeste 0 980.6 -1.4 47
2018-05-05 14:00:00 20.3 19 Noroeste 35 Noroeste 0 981.2 -1.2 48
2018-05-05 13:00:00 18.8 21 Noroeste 39 Noroeste 0 981.8 -0.5 52
2018-05-05 12:00:00 17.5 28 Noroeste 41 Noroeste 0 982 -0.4 54
2018-05-05 11:00:00 15.6 26 Noroeste 42 Noroeste 0 982.4 0.4 57
2018-05-05 10:00:00 13.5 32 Oeste 46 Oeste 0 982.3 0.6 62
2018-05-05 09:00:00 11.9 26 Oeste 42 Noroeste 0 982.4 1 67
2018-05-05 08:00:00 10.3 27 Oeste 38 Noroeste 0 982 0.5 72
2018-05-05 07:00:00 9.6 27 Oeste 43 Oeste 0 981.7 -0.1 75
2018-05-05 06:00:00 9.8 31 Oeste 45 Oeste 0 981.4 -0.8 74
2018-05-05 05:00:00 9.9 28 Oeste 44 Oeste 0 981.5 -1 73
2018-05-05 04:00:00 10.1 33 Oeste 49 Noroeste 0 981.8 -0.9 71
2018-05-05 03:00:00 10.3 30 Oeste 47 Oeste 0 982.2 -0.5 70
2018-05-05 02:00:00 10.5 31 Oeste 45 Oeste 0 982.5 0.1 68
2018-05-05 01:00:00 10.6 36 Oeste 51 Oeste 0 982.7 0.7 68
2018-05-05 00:00:00 10.9 33 Oeste 55 Noroeste 0 982.7 1.4 67
2018-05-04 23:00:00 11.5 43 Noroeste 57 Noroeste 0 982.4 1.9 64
2018-05-04 22:00:00 11.9 40 Noroeste 56 Noroeste 0 982 2 61
2018-05-04 21:00:00 12.9 39 Noroeste 65 Noroeste 0 981.3 1.4 57
2018-05-04 20:00:00 14.4 47 Noroeste 67 Noroeste 0 980.5 1.1 51
2018-05-04 19:00:00 15.5 48 Noroeste 69 Noroeste 0 980 0.8 49
2018-05-04 18:00:00 16.1 54 Noroeste 71 Noroeste 0 979.9 0.5 47
2018-05-04 17:00:00 16.8 52 Noroeste 71 Noroeste 0 979.4 0 45
2018-05-04 16:00:00 17.7 46 Noroeste 68 Oeste 0 979.2 -0.8 45
2018-05-04 15:00:00 17.6 46 Noroeste 67 Noroeste 0 979.4 -0.7 43
2018-05-04 14:00:00 17.3 45 Noroeste 64 Noroeste 0 979.4 -1 42
2018-05-04 13:00:00 16.8 40 Noroeste 61 Noroeste 0 980 -0.5 41
2018-05-04 12:00:00 15.9 42 Noroeste 59 Noroeste 0 980.1 -0.3 43
2018-05-04 11:00:00 14.8 42 Noroeste 60 Noroeste 0 980.4 -0.2 45
2018-05-04 10:00:00 13.2 45 Noroeste 61 Noroeste 0 980.5 -0.1 55
2018-05-04 09:00:00 11.6 37 Noroeste 53 Noroeste 0 980.4 -0.3 64
2018-05-04 08:00:00 9.6 39 Oeste 54 Oeste 0 980.6 -0.6 68
2018-05-04 07:00:00 9.1 37 Oeste 57 Noroeste 0 980.6 -1 69
2018-05-04 06:00:00 8.9 35 Noroeste 51 Noroeste 0 980.7 -1.1 71
2018-05-04 05:00:00 8.8 39 Oeste 54 Noroeste 0 981.2 -1.4 67
2018-05-04 04:00:00 9.3 36 Noroeste 52 Noroeste 0 981.6 -1 66
2018-05-04 03:00:00 8.8 34 Noroeste 52 Noroeste 0 981.8 -1 68
2018-05-04 02:00:00 9 32 Noroeste 52 Noroeste 0 982.6 -0.6 68
2018-05-04 01:00:00 9.1 31 Noroeste 60 Noroeste 0 982.6 -0.2 65
2018-05-04 00:00:00 9.6 42 Noroeste 64 Noroeste 0 982.8 0.7 61
2018-05-03 23:00:00 9.6 31 Noroeste 66 Noroeste 0 983.2 2.2 61
2018-05-03 22:00:00 10 37 Noroeste 60 Noroeste 0 982.8 2.2 60
2018-05-03 21:00:00 10.7 41 Noroeste 75 Noroeste 0 982.1 1.7 55
2018-05-03 20:00:00 12 57 Noroeste 75 Noroeste 0 981 0.1 51
2018-05-03 19:00:00 13.1 48 Noroeste 67 Noroeste 0 980.6 0.1 47
2018-05-03 18:00:00 13.7 46 Noroeste 71 Noroeste 0 980.4 -0.9 48
2018-05-03 17:00:00 13 41 Noroeste 69 Noroeste 0 980.9 -0.7 49
2018-05-03 16:00:00 12.8 49 Noroeste 73 Noroeste 0 980.5 -1.6 54
2018-05-03 15:00:00 13.8 46 Noroeste 68 Noroeste 0 981.3 -0.5 56
2018-05-03 14:00:00 12.2 46 Noroeste 67 Noroeste 0 981.6 -0.1 63
2018-05-03 13:00:00 11.2 33 Noroeste 51 Noroeste 0 982.1 0.5 65
2018-05-03 12:00:00 11.8 42 Noroeste 54 Noroeste 0 981.8 0.2 58
2018-05-03 11:00:00 12.2 36 Noroeste 59 Noroeste 0 981.7 0.7 53
2018-05-03 10:00:00 11.8 36 Noroeste 56 Noroeste 0 981.6 1.2 57
2018-05-03 09:00:00 10.8 31 Noroeste 51 Noroeste 0 981.6 1.8 62
2018-05-03 08:00:00 10 31 Noroeste 51 Noroeste 0 981 1.4 62
2018-05-03 07:00:00 10 28 Noroeste 39 Noroeste 0 980.4 1 77
2018-05-03 06:00:00 10.4 25 Oeste 33 Oeste 0 979.8 0.4 84
2018-05-03 05:00:00 10.9 21 Noroeste 28 Noroeste 0 979.6 0 86
2018-05-03 04:00:00 10.7 19 Noroeste 25 Oeste 0 979.4 -0.4 89
2018-05-03 03:00:00 10.8 12 Noroeste 18 Noroeste 0 979.4 -0.5 88
2018-05-03 02:00:00 11.5 14 Noroeste 23 Oeste 0 979.6 -0.2 84
2018-05-03 01:00:00 12.2 15 Oeste 19 Oeste 0 979.8 0.4 80
2018-05-03 00:00:00 12.3 12 Oeste 23 Noroeste 0 979.9 0.8 78
2018-05-02 23:00:00 12.5 16 Noroeste 24 Noroeste 0 979.8 1.2 75
2018-05-02 22:00:00 13 17 Noroeste 27 Noroeste 0 979.4 1.1 70
2018-05-02 21:00:00 14.2 19 Noroeste 33 Noroeste 0 979.1 1.3 64
2018-05-02 20:00:00 15.3 26 Noroeste 39 Noroeste 0 978.6 1.2 58
2018-05-02 19:00:00 16.4 28 Noroeste 42 Noroeste 0 978.3 1 52
2018-05-02 18:00:00 17.3 30 Noroeste 40 Noroeste 0 977.8 0.2 45
2018-05-02 17:00:00 18.2 27 Noroeste 41 Noroeste 0 977.4 -0.4 39
2018-05-02 16:00:00 19.1 25 Noroeste 44 Noroeste 0 977.3 -0.9 34
2018-05-02 15:00:00 17.9 22 Oeste 51 Noroeste 0 977.6 -1.3 35
2018-05-02 14:00:00 17.4 27 Noroeste 45 Noroeste 0 977.8 -0.9 34
2018-05-02 13:00:00 16.6 24 Noroeste 35 Noroeste 0 978.2 -0.5 36
2018-05-02 12:00:00 14.6 5 Oeste 13 Oeste 0 978.9 0 42
2018-05-02 11:00:00 12.3 3 Sur 9 Norte 0 978.7 0.1 46
2018-05-02 10:00:00 9.8 2 Este 8 Oeste 0 978.7 0.3 53
2018-05-02 09:00:00 6.3 5 Sur 8 Sur 0 978.9 0.6 72
2018-05-02 08:00:00 3.9 3 Sudeste 4 Sudeste 0 978.6 -0.1 83
2018-05-02 07:00:00 2.3 2 Sudoeste 4 Sudeste 0 978.4 -0.5 88
2018-05-02 06:00:00 2.8 2 Sudeste 6 Norte 0 978.3 -0.9 87
2018-05-02 05:00:00 3.5 3 Norte 4 Norte 0 978.7 -0.7 84
2018-05-02 04:00:00 4.2 0 Calma 7 Sudoeste 0 978.9 -0.6 80
2018-05-02 03:00:00 4.6 2 Oeste 12 Noroeste 0 979.2 -0.2 78
2018-05-02 02:00:00 4.9 9 Noroeste 14 Oeste 0 979.4 0.1 76
2018-05-02 01:00:00 6 12 Oeste -- -- 0 979.5 0.5 65
2018-05-02 00:00:00 8 9 Noroeste 21 Norte 0 979.4 1 57
2018-05-01 23:00:00 8.4 7 Oeste 13 Noroeste 0 979.3 1.1 59
2018-05-01 22:00:00 9.9 9 Noroeste 23 Norte 0 979 0.7 57
2018-05-01 21:00:00 12.3 19 Norte 32 Norte 0 978.4 -0.1 44
2018-05-01 20:00:00 14 22 Norte 43 Noroeste 0 978.2 -0.6 41
2018-05-01 19:00:00 14.9 28 Noroeste 49 Noroeste 0 978.3 -0.9 35
2018-05-01 18:00:00 15.1 26 Noroeste 43 Noroeste 0 978.5 -1.1 38
2018-05-01 17:00:00 15.1 27 Noroeste 51 Noroeste 0 978.8 -1 42
2018-05-01 16:00:00 15.3 30 Oeste 44 Noroeste 0 979.2 -1.3 39
2018-05-01 15:00:00 14.8 29 Oeste 47 Noroeste 0 979.6 -1.4 42
2018-05-01 14:00:00 13.8 30 Noroeste 45 Noroeste 0 979.8 -1 43
2018-05-01 13:00:00 12.6 31 Noroeste 51 Noroeste 0 980.5 -0.5 49
2018-05-01 12:00:00 11.8 35 Noroeste 49 Noroeste 0 981 0.2 58
2018-05-01 11:00:00 10.5 38 Noroeste 51 Noroeste 0 980.8 -0.1 64
2018-05-01 10:00:00 9.5 33 Noroeste 47 Noroeste 0 981 0.7 70
2018-05-01 09:00:00 8.2 31 Noroeste 38 Noroeste 0 980.8 0.7 75
2018-05-01 08:00:00 6.9 14 Noroeste 29 Oeste 0 980.9 0.9 82
2018-05-01 07:00:00 5.9 18 Oeste 32 Oeste 0 980.3 0.3 86
2018-05-01 06:00:00 6.1 22 Oeste 33 Oeste 0 980.1 0 83
2018-05-01 05:00:00 5.9 17 Oeste 23 Oeste 0 980 -0.7 86
2018-05-01 04:00:00 6.2 14 Noroeste 29 Oeste 0 980 -0.5 86
2018-05-01 03:00:00 6.9 22 Oeste 30 Noroeste 0 980.1 -0.3 82
2018-05-01 02:00:00 6.6 18 Noroeste 24 Noroeste 0 980.7 0.3 85
2018-05-01 01:00:00 6.4 15 Noroeste 29 Noroeste 0 980.5 0.6 86
2018-05-01 00:00:00 6.9 19 Noroeste 24 Noroeste 0 980.4 1.5 85
2018-04-30 23:00:00 7.7 11 Noroeste 15 Noroeste 0 980.4 2.5 83
2018-04-30 22:00:00 9 4 Sudoeste 22 Norte 0 979.9 2.8 76
2018-04-30 21:00:00 9.7 19 Noroeste 40 Noroeste 0 978.9 1.4 67
2018-04-30 20:00:00 12.8 14 Noroeste 24 Noroeste 0 977.9 0.4 51
2018-04-30 19:00:00 13.1 18 Oeste 29 Oeste 0 977.1 -0.5 42
2018-04-30 18:00:00 12.4 20 Norte 42 Noroeste 0 977.5 -0.6 51
2018-04-30 17:00:00 13.6 19 Noroeste 36 Noroeste 0 977.5 -0.3 50
2018-04-30 16:00:00 11.7 22 Norte 46 Oeste 0.8 977.6 -0.8 67
2018-04-30 15:00:00 13.5 8 Sudoeste 17 Oeste 0 978.1 -0.5 43
2018-04-30 14:00:00 14.9 8 Sudoeste 17 Sudoeste 0 977.8 -0.8 42
2018-04-30 13:00:00 13.5 11 Sur 19 Sudoeste 0 978.4 -0.1 39
2018-04-30 12:00:00 12.5 5 Noroeste 14 Norte 0 978.6 0.1 47
2018-04-30 11:00:00 11 10 Norte 17 Noroeste 0 978.6 0.3 60
2018-04-30 10:00:00 9.7 4 Norte 10 Norte 0 978.5 0.9 70
2018-04-30 09:00:00 7 2 Norte 6 Nordeste 0 978.5 1.4 93
2018-04-30 08:00:00 4.5 4 Oeste 9 Noroeste 0 978.3 1.3 98
2018-04-30 07:00:00 3.8 2 Este 10 Noroeste 0 977.6 0.8 97
2018-04-30 06:00:00 4.4 2 Sur 11 Noroeste 0 977.1 0.2 96
2018-04-30 05:00:00 5 3 Nordeste 11 Nordeste 0 977 -0.1 96
2018-04-30 04:00:00 5.8 4 Noroeste 9 Sudoeste 0 976.8 -0.1 95
2018-04-30 03:00:00 6.7 3 Este 11 Norte 0 976.9 0.2 92
2018-04-30 02:00:00 7.3 9 Sur 19 Sudeste 0 977.1 0.6 87
2018-04-30 01:00:00 7.5 14 Este 22 Este 0 976.9 1.3 92
2018-04-30 00:00:00 8.3 11 Este 15 Este 0 976.7 2.2 89
2018-04-29 23:00:00 9.4 6 Este 9 Sudeste 0 976.5 3.1 87
2018-04-29 22:00:00 9.3 4 Nordeste 39 Noroeste 0.2 975.6 3.1 84
2018-04-29 21:00:00 10.8 10 Noroeste 12 Noroeste 0.4 974.5 2.5 83
2018-04-29 20:00:00 11.2 2 Norte 19 Noroeste 0.4 973.4 1 75
2018-04-29 19:00:00 11.8 5 Nordeste 12 Nordeste 0 972.5 0.6 66
2018-04-29 18:00:00 11.3 9 Nordeste 13 Nordeste 0.4 972 1.1 76
2018-04-29 17:00:00 10.8 5 Sur 19 Sur 0 972.4 1.9 75
2018-04-29 16:00:00 9.4 12 Sur 35 Oeste 2 971.9 1.7 84
2018-04-29 15:00:00 13.5 14 Oeste 32 Noroeste 0 970.9 0.6 66
2018-04-29 14:00:00 13.1 15 Sudoeste 23 Oeste 0 970.5 0.4 64
2018-04-29 13:00:00 12.6 18 Noroeste 39 Noroeste 0 970.2 0.4 67
2018-04-29 12:00:00 11.6 28 Noroeste 41 Noroeste 0 970.3 0.3 70
2018-04-29 11:00:00 11.6 23 Oeste 33 Noroeste 0 970.1 0.3 79
2018-04-29 10:00:00 11.5 6 Oeste 10 Sudoeste 0 969.8 0.7 79
2018-04-29 09:00:00 10.2 5 Oeste 13 Este 0 970 0.8 84
2018-04-29 08:00:00 7.3 14 Este 17 Este 0 969.8 0.1 96
2018-04-29 07:00:00 7.8 3 Oeste 9 Noroeste 0 969.1 -0.8 93
2018-04-29 06:00:00 9 3 Oeste 7 Sur 0 969.2 -0.8 92
2018-04-29 05:00:00 9.2 4 Este 8 Este 0 969.7 -1.4 90
2018-04-29 04:00:00 9.9 0 Calma 10 Noroeste 0 969.9 -1.3 87
2018-04-29 03:00:00 10.2 5 Oeste 6 Oeste 0 970 -1.2 90
2018-04-29 02:00:00 10.6 4 Noroeste 13 Oeste 0 971.1 0.1 87
2018-04-29 01:00:00 11 5 Oeste 9 Oeste 0 971.2 0.8 87
2018-04-29 00:00:00 11.4 8 Oeste 15 Oeste 0 971.2 2.4 84
2018-04-28 23:00:00 12.3 10 Oeste 18 Oeste 0 971 1.5 80
2018-04-28 22:00:00 14.5 13 Noroeste 32 Oeste 0 970.4 0.4 74
2018-04-28 21:00:00 18.1 11 Sur 30 Sur 0 968.8 -1.6 53
2018-04-28 20:00:00 19.7 9 Sur 22 Sudoeste 0 969.5 -1.4 52
2018-04-28 19:00:00 19.6 16 Sudoeste 25 Sudoeste 0 970 -1.5 63
2018-04-28 18:00:00 19.3 8 Sudoeste 19 Sudoeste 0.2 970.4 -1.9 68
2018-04-28 17:00:00 17.8 17 Sudoeste 45 Sudoeste 2 970.9 -2.2 75
2018-04-28 16:00:00 20.1 28 Este 42 Este 0 971.5 -3.1 57
2018-04-28 15:00:00 20.2 24 Este 38 Este 0 972.3 -3.3 56
2018-04-28 14:00:00 18.7 25 Este 36 Este 0 973.1 -2.9 59
2018-04-28 13:00:00 17 19 Este 25 Este 0 974.6 -1.7 59
2018-04-28 12:00:00 15.1 6 Sudeste 15 Este 0 975.6 -0.8 63
2018-04-28 11:00:00 13.8 6 Este 14 Sudeste 0 976 -0.6 65
2018-04-28 10:00:00 11.9 4 Sudeste 8 Sur 0 976.3 -0.1 71
2018-04-28 09:00:00 10.9 3 Este 6 Nordeste 0 976.4 -0.1 75
2018-04-28 08:00:00 9.4 3 Sur 4 Sur 0 976.6 -0.2 82
2018-04-28 07:00:00 9 3 Oeste 8 Oeste 0 976.4 -0.6 82
2018-04-28 06:00:00 9.2 4 Noroeste 26 Noroeste 0 976.5 -0.8 81
2018-04-28 05:00:00 9.9 18 Noroeste 27 Noroeste 0 976.8 -1.1 79
2018-04-28 04:00:00 10.3 19 Oeste 29 Oeste 0 977 -1.1 78
2018-04-28 03:00:00 10.9 18 Oeste 30 Oeste 0 977.3 -1 73
2018-04-28 02:00:00 10.6 16 Oeste 27 Oeste 0 977.9 -1 74
2018-04-28 01:00:00 10.5 16 Oeste 27 Noroeste 0 978.1 0 77
2018-04-28 00:00:00 11.1 22 Oeste 30 Oeste 0 978.3 1.1 74
2018-04-27 23:00:00 11.8 21 Noroeste 33 Noroeste 0 978.9 2.5 73
2018-04-27 22:00:00 12.3 23 Noroeste 37 Noroeste 0 978.1 2.2 71
2018-04-27 21:00:00 14.2 25 Noroeste 40 Oeste 0 977.2 1.9 65
2018-04-27 20:00:00 17.5 27 Noroeste 39 Oeste 0 976.4 1 56
2018-04-27 19:00:00 19.8 23 Noroeste 38 Noroeste 0 975.9 0.1 50
2018-04-27 18:00:00 22.2 28 Noroeste 42 Noroeste 0 975.3 -1.1 42
2018-04-27 17:00:00 22.8 30 Noroeste 42 Oeste 0 975.4 -1.6 41
2018-04-27 16:00:00 23.6 24 Noroeste 34 Noroeste 0 975.8 -1.8 35
2018-04-27 15:00:00 23.4 15 Noroeste 31 Noroeste 0 976.4 -1.7 35
2018-04-27 14:00:00 22.8 10 Noroeste 22 Noroeste 0 977 -1.2 39
2018-04-27 13:00:00 21.3 6 Oeste 16 Oeste 0 977.6 -0.5 47
2018-04-27 12:00:00 19.5 10 Sudoeste 20 Sur 0 978.1 0.4 51
2018-04-27 11:00:00 17.4 6 Noroeste 18 Noroeste 0.2 978.2 1.1 53
2018-04-27 10:00:00 14.9 8 Oeste 15 Oeste 0 978.1 0.7 65
2018-04-27 09:00:00 12.2 8 Noroeste 13 Noroeste 0 977.7 0.1 79
2018-04-27 08:00:00 10.2 5 Sur 8 Sudeste 0 977.1 -0.9 89
2018-04-27 07:00:00 10 5 Sudoeste 10 Oeste 0 977.4 -0.7 89
2018-04-27 06:00:00 10.2 5 Nordeste 9 Noroeste 0 977.6 -0.8 88
2018-04-27 05:00:00 9.9 5 Oeste 8 Oeste 0 978 -0.9 85
2018-04-27 04:00:00 9.7 3 Noroeste 7 Noroeste 0 978.1 -1.2 84
2018-04-27 03:00:00 10.6 4 Nordeste 6 Nordeste 0 978.4 -1.1 80
2018-04-27 02:00:00 11 0 Calma 6 Noroeste 0 978.9 -0.8 77
2018-04-27 01:00:00 11.8 5 Norte 8 Oeste 0 979.3 -0.1 73
2018-04-27 00:00:00 12.9 6 Sudoeste 14 Oeste 0 979.5 0.5 68
2018-04-26 23:00:00 13.9 10 Oeste 15 Noroeste 0 979.7 0.5 63
2018-04-26 22:00:00 15.3 13 Noroeste 21 Noroeste 0 979.4 -0.1 57
2018-04-26 21:00:00 17.2 15 Noroeste 29 Noroeste 0 979 -1 47
2018-04-26 20:00:00 19.5 23 Noroeste 39 Noroeste 0 979.2 -1.6 41
2018-04-26 19:00:00 20.4 30 Noroeste 40 Oeste 0 979.5 -2.2 38
2018-04-26 18:00:00 20.9 27 Noroeste 37 Noroeste 0 980 -2.4 39
2018-04-26 17:00:00 20.8 25 Noroeste 41 Noroeste 0 980.8 -2.5 38
2018-04-26 16:00:00 20.6 28 Noroeste 46 Noroeste 0 981.7 -2.3 38
2018-04-26 15:00:00 19.1 32 Noroeste 46 Oeste 0 982.4 -2.5 42
2018-04-26 14:00:00 18.1 35 Noroeste 49 Noroeste 0 983.3 -2.1 41
2018-04-26 13:00:00 16.7 39 Noroeste 53 Oeste 0 984 -1.6 43
2018-04-26 12:00:00 15.6 37 Noroeste 52 Noroeste 0 984.9 -0.7 49
2018-04-26 11:00:00 14.2 39 Noroeste 54 Noroeste 0 985.4 0.1 54
2018-04-26 10:00:00 13.4 38 Noroeste 54 Noroeste 0 985.6 0.9 60
2018-04-26 09:00:00 12.7 32 Noroeste 49 Noroeste 0 985.6 0.6 65
2018-04-26 08:00:00 11.5 30 Noroeste 45 Noroeste 0 985.3 0.2 70
2018-04-26 07:00:00 11.4 32 Noroeste 46 Oeste 0 984.7 -1 73
2018-04-26 06:00:00 11.8 32 Noroeste 48 Noroeste 0 985 -1.3 75
2018-04-26 05:00:00 12.1 31 Noroeste 47 Oeste 0 985.1 -1.6 76
2018-04-26 04:00:00 12.5 27 Noroeste 41 Noroeste 0 985.7 -1.2 74
2018-04-26 03:00:00 12.8 28 Oeste 41 Noroeste 0 986.3 -0.9 72
2018-04-26 02:00:00 13 27 Noroeste 44 Noroeste 0 986.7 -0.2 74
2018-04-26 01:00:00 13.1 33 Noroeste 44 Noroeste 0 986.9 0.5 74
2018-04-26 00:00:00 13.2 28 Noroeste 50 Noroeste 0 987.2 1.9 73
2018-04-25 23:00:00 13.6 37 Noroeste 51 Noroeste 0 986.9 2.9 71
2018-04-25 22:00:00 13.7 30 Noroeste 54 Noroeste 0 986.4 3.5 70
2018-04-25 21:00:00 14.5 33 Noroeste 62 Noroeste 0 985.3 3 67
2018-04-25 20:00:00 16.2 43 Noroeste 64 Noroeste 0 984 2 63
2018-04-25 19:00:00 18.7 43 Noroeste 65 Noroeste 0 982.9 0.6 57
2018-04-25 18:00:00 20.9 41 Noroeste 59 Noroeste 0 982.3 -0.2 52
2018-04-25 17:00:00 23.2 35 Noroeste 49 Noroeste 0 982 -1.2 51
2018-04-25 16:00:00 24.9 27 Noroeste 39 Noroeste 0 982.3 -1.6 41
2018-04-25 15:00:00 24.6 24 Noroeste 33 Oeste 0 982.5 -2 43
2018-04-25 14:00:00 23.6 18 Noroeste 28 Noroeste 0 983.2 -1.6 47
2018-04-25 13:00:00 22.8 13 Oeste 21 Noroeste 0 983.9 -1 53
2018-04-25 12:00:00 20.8 13 Oeste 22 Oeste 0 984.5 -0.2 57
2018-04-25 11:00:00 18.9 9 Oeste 15 Oeste 0 984.8 1.1 67
2018-04-25 10:00:00 16.7 4 Norte 10 Noroeste 0 984.9 1.8 76
2018-04-25 09:00:00 13.4 3 Sur 10 Sudeste 0 984.7 2.5 86
2018-04-25 08:00:00 11 4 Sudeste 8 Sudoeste 0 983.7 1.5 89
2018-04-25 07:00:00 11.1 6 Sur 10 Sudoeste 0 983.1 0.8 89
2018-04-25 06:00:00 11.2 5 Noroeste 8 Noroeste 0 982.2 0 88
2018-04-25 05:00:00 12.2 3 Norte 4 Norte 0 982.2 -0.2 85
2018-04-25 04:00:00 12.7 0 Calma 5 Este 0 982.3 -0.2 83
2018-04-25 03:00:00 13.6 6 Sudeste 7 Sudeste 0 982.2 -0.1 82
2018-04-25 02:00:00 14.7 3 Norte 8 Noroeste 0 982.4 0.3 76
2018-04-25 01:00:00 15.7 4 Oeste 11 Norte 0 982.5 0.7 72
2018-04-25 00:00:00 16.5 7 Noroeste 12 Nordeste 0 982.3 1 73
2018-04-24 23:00:00 18.2 3 Norte 18 Este 0 982.1 1.2 67
2018-04-24 22:00:00 20.4 17 Este 19 Este 0 981.8 0.8 57
2018-04-24 21:00:00 22.1 8 Este 18 Este 0 981.3 0 54
2018-04-24 20:00:00 24.3 13 Este 24 Este 0 980.9 -0.9 46
2018-04-24 19:00:00 25.5 17 Este 24 Este 0 981 -1.6 36
2018-04-24 18:00:00 25.7 14 Este 25 Este 0 981.3 -1.9 36
2018-04-24 17:00:00 25.2 19 Este 31 Este 0 981.8 -2.1 42
2018-04-24 16:00:00 25.1 15 Este 27 Este 0 982.6 -2.1 40
2018-04-24 15:00:00 24.4 16 Este 27 Este 0 983.2 -1.9 44
2018-04-24 14:00:00 23.4 16 Este 23 Este 0 983.9 -1.5 49
2018-04-24 13:00:00 21.8 10 Este 20 Este 0 984.7 -0.9 54
2018-04-24 12:00:00 20.6 6 Este 13 Este 0 985.1 -0.1 59
2018-04-24 11:00:00 17.5 5 Norte 10 Noroeste 0 985.4 0.6 73
2018-04-24 10:00:00 14 3 Sur 5 Sudeste 0 985.6 1.4 87
2018-04-24 09:00:00 11.3 2 Sur 5 Sur 0 985.2 0.9 93
2018-04-24 08:00:00 9.7 3 Oeste 4 Oeste 0 984.8 0.2 94
2018-04-24 07:00:00 9.6 3 Sudeste 5 Sudeste 0 984.2 -0.3 93
2018-04-24 06:00:00 9.9 2 Sudeste 5 Noroeste 0 984.3 -0.6 93
2018-04-24 05:00:00 10.8 4 Oeste 7 Noroeste 0 984.6 -0.3 94
2018-04-24 04:00:00 11.2 0 Calma 9 Este 0 984.5 -0.6 90
2018-04-24 03:00:00 12.4 5 Sudeste 8 Sur 0 984.9 -0.3 90
2018-04-24 02:00:00 12.7 3 Oeste 10 Noroeste 0 984.9 -0.3 91
2018-04-24 01:00:00 13.6 6 Noroeste 14 Este 0 985.1 0.4 87
2018-04-24 00:00:00 14.3 9 Este 13 Nordeste 0 985.2 1.1 86
2018-04-23 23:00:00 14.4 6 Este 14 Este 0 985.2 1.5 86
2018-04-23 22:00:00 15.4 9 Este 16 Este 0 984.7 1 82
2018-04-23 21:00:00 17.1 7 Sudeste 19 Este 0 984.1 0.3 76
2018-04-23 20:00:00 18.6 15 Este 30 Este 0 983.7 -0.6 72
2018-04-23 19:00:00 20 21 Este 28 Este 0 983.7 -0.6 60
2018-04-23 18:00:00 21.3 15 Sur 31 Sudeste 0 983.8 -0.5 54
2018-04-23 17:00:00 20.4 22 Sur 31 Sur 0 984.3 -0.2 58
2018-04-23 16:00:00 22 17 Sudeste 29 Sudeste 0 984.3 -1.1 57
2018-04-23 15:00:00 20.2 18 Este 26 Sudeste 0 984.3 -0.8 58
2018-04-23 14:00:00 19.3 15 Este 25 Este 0 984.5 -0.4 57
2018-04-23 13:00:00 18.8 17 Este 24 Este 0 985.4 0.9 62
2018-04-23 12:00:00 17.4 8 Este 15 Sur 0 985.1 0.9 70
2018-04-23 11:00:00 17.1 5 Este 9 Este 0 984.9 1.5 64
2018-04-23 10:00:00 14.5 3 Sudeste 8 Nordeste 0 984.5 1.2 80
2018-04-23 09:00:00 12.5 2 Sur 7 Norte 0 984.2 1.2 89
2018-04-23 08:00:00 11.4 5 Norte 8 Nordeste 0 983.4 -0.1 89
2018-04-23 07:00:00 11.8 6 Oeste 10 Sur 0 983.3 0 93
2018-04-23 06:00:00 12.1 8 Sudeste 10 Este 0 983 -0.1 85
2018-04-23 05:00:00 12.9 3 Sudoeste 8 Sudeste 0 983.5 0.7 82
2018-04-23 04:00:00 13.6 2 Noroeste 11 Este 0 983.3 0.8 79
2018-04-23 03:00:00 14.5 10 Este 12 Este 0 983.1 0.5 76
2018-04-23 02:00:00 13.7 7 Noroeste 10 Sudoeste 0 982.8 0.3 81
2018-04-23 01:00:00 14.8 5 Oeste 12 Nordeste 0 982.5 0.6 75
2018-04-23 00:00:00 16 10 Nordeste 14 Este 0 982.6 1.3 71
2018-04-22 23:00:00 17.2 13 Sudeste 15 Este 0 982.5 1.9 69
2018-04-22 22:00:00 19 9 Este 21 Este 0 981.9 1.2 66
2018-04-22 21:00:00 19.9 12 Este 15 Este 0 981.3 1 63
2018-04-22 20:00:00 21.4 7 Nordeste 17 Sur 0 980.6 0.4 58
2018-04-22 19:00:00 22 13 Este 26 Este 0 980.7 -0.4 53
2018-04-22 18:00:00 23.7 18 Este 28 Este 0 980.3 -1.7 46
2018-04-22 17:00:00 22.8 10 Este 20 Este 0 980.2 -1.7 45
2018-04-22 16:00:00 22.5 5 Este 12 Sudoeste 0 981.1 -1.5 47
2018-04-22 15:00:00 19.5 18 Sudoeste 26 Sudoeste 0 982 -0.8 61
2018-04-22 14:00:00 20.2 9 Este 19 Este 0 981.9 -1.3 48
2018-04-22 13:00:00 19.7 14 Este 22 Este 0 982.6 -0.3 51
2018-04-22 12:00:00 19.4 13 Este 24 Nordeste 0 982.8 -0.2 51
2018-04-22 11:00:00 18.4 12 Este 21 Este 0 983.2 0.6 55
2018-04-22 10:00:00 15.5 15 Este 19 Este 0 982.9 0.6 66
2018-04-22 09:00:00 13.4 10 Este 15 Sudeste 0 983 0.5 76
2018-04-22 08:00:00 11.8 6 Sur 16 Este 0 982.6 0.1 82
2018-04-22 07:00:00 11.9 8 Nordeste 11 Nordeste 0 982.3 -0.2 82
2018-04-22 06:00:00 13.6 13 Sur 28 Sudeste 0 982.5 -0.5 74
2018-04-22 05:00:00 13.1 16 Este 27 Este 0 982.5 -0.8 79
2018-04-22 04:00:00 13.4 24 Este 28 Este 0 982.5 -0.6 80
2018-04-22 03:00:00 14 22 Este -- -- 0 983 0 78
2018-04-22 02:00:00 14.9 19 Este 23 Este 0 983.3 0.2 74
2018-04-22 01:00:00 15 14 Este 19 Este 0 983.1 0.5 77
2018-04-22 00:00:00 15.5 15 Este 19 Este 0 983 0.6 76